createdAt,value
2019-02-23T00:04:44.826Z,1038.9
2019-02-23T00:09:44.573Z,1038.9
2019-02-23T00:14:44.752Z,1038.9
2019-02-23T00:19:44.610Z,1039
2019-02-23T00:24:44.767Z,1039
2019-02-23T00:29:44.445Z,1039.1
2019-02-23T00:34:44.487Z,1039.1
2019-02-23T00:39:44.598Z,1039.1
2019-02-23T00:44:44.689Z,1039.1
2019-02-23T00:49:44.551Z,1039
2019-02-23T00:54:44.635Z,1039
2019-02-23T00:59:44.675Z,1038.9
2019-02-23T01:04:44.641Z,1038.9
2019-02-23T01:09:44.711Z,1039
2019-02-23T01:14:44.456Z,1039
2019-02-23T01:19:47.712Z,1038.9
2019-02-23T01:24:44.323Z,1038.8
2019-02-23T01:29:44.672Z,1038.7
2019-02-23T01:34:44.356Z,1038.7
2019-02-23T01:39:44.655Z,1038.7
2019-02-23T01:44:44.320Z,1038.7
2019-02-23T01:49:44.419Z,1038.7
2019-02-23T01:54:44.558Z,1038.7
2019-02-23T01:59:44.439Z,1038.6
2019-02-23T02:04:44.626Z,1038.6
2019-02-23T02:09:44.504Z,1038.5
2019-02-23T02:14:44.461Z,1038.5
2019-02-23T02:19:44.484Z,1038.6
2019-02-23T02:24:44.560Z,1038.5
2019-02-23T02:29:44.416Z,1038.6
2019-02-23T02:34:44.286Z,1038.5
2019-02-23T02:39:44.522Z,1038.4
2019-02-23T02:44:44.256Z,1038.4
2019-02-23T02:49:44.209Z,1038.4
2019-02-23T02:54:44.213Z,1038.4
2019-02-23T02:59:44.239Z,1038.4
2019-02-23T03:04:44.431Z,1038.4
2019-02-23T03:09:44.224Z,1038.3
2019-02-23T03:14:44.283Z,1038.4
2019-02-23T03:19:44.299Z,1038.4
2019-02-23T03:24:44.375Z,1038.4
2019-02-23T03:29:44.146Z,1038.4
2019-02-23T03:34:44.267Z,1038.3
2019-02-23T03:39:44.400Z,1038.3
2019-02-23T03:44:44.189Z,1038.3
2019-02-23T03:49:44.437Z,1038.3
2019-02-23T03:54:44.410Z,1038.3
2019-02-23T03:59:44.462Z,1038.4
2019-02-23T04:04:44.116Z,1038.3
2019-02-23T04:09:44.368Z,1038.2
2019-02-23T04:14:44.191Z,1038.2
2019-02-23T04:19:44.079Z,1038.3
2019-02-23T04:24:44.295Z,1038.4
2019-02-23T04:29:46.938Z,1038.4
2019-02-23T04:34:44.162Z,1038.4
2019-02-23T04:39:44.253Z,1038.4
2019-02-23T04:44:44.294Z,1038.4
2019-02-23T04:49:44.234Z,1038.4
2019-02-23T04:54:44.225Z,1038.5
2019-02-23T04:59:44.465Z,1038.4
2019-02-23T05:04:44.288Z,1038.5
2019-02-23T05:09:44.177Z,1038.5
2019-02-23T05:14:44.319Z,1038.5
2019-02-23T05:19:44.137Z,1038.6
2019-02-23T05:24:44.126Z,1038.6
2019-02-23T05:29:44.157Z,1038.6
2019-02-23T05:34:44.234Z,1038.7
2019-02-23T05:39:44.005Z,1038.7
2019-02-23T05:44:44.187Z,1038.7
2019-02-23T05:49:44.049Z,1038.7
2019-02-23T05:54:43.965Z,1038.7
2019-02-23T05:59:44.258Z,1038.7
2019-02-23T06:04:43.983Z,1038.8
2019-02-23T06:09:44.001Z,1038.8
2019-02-23T06:14:44.109Z,1038.7
2019-02-23T06:19:44.251Z,1038.6
2019-02-23T06:24:44.178Z,1038.7
2019-02-23T06:29:44.128Z,1038.6
2019-02-23T06:34:43.986Z,1038.6
2019-02-23T06:39:43.879Z,1038.6
2019-02-23T06:44:44.216Z,1038.6
2019-02-23T06:49:44.061Z,1038.6
2019-02-23T06:54:44.003Z,1038.7
2019-02-23T06:59:43.932Z,1038.7
2019-02-23T07:04:44.192Z,1038.8
2019-02-23T07:09:43.919Z,1038.8
2019-02-23T07:14:44.133Z,1038.9
2019-02-23T07:19:43.981Z,1039
2019-02-23T07:24:44.093Z,1039
2019-02-23T07:29:43.992Z,1039
2019-02-23T07:34:44.002Z,1039
2019-02-23T07:39:43.772Z,1039
2019-02-23T07:44:43.901Z,1038.9
2019-02-23T07:49:44.135Z,1038.9
2019-02-23T07:54:43.775Z,1038.8
2019-02-23T07:59:44.033Z,1038.8
2019-02-23T08:04:44.097Z,1038.8
2019-02-23T08:09:44.018Z,1038.7
2019-02-23T08:14:43.733Z,1038.6
2019-02-23T08:19:43.999Z,1038.6
2019-02-23T08:24:43.964Z,1038.6
2019-02-23T08:29:54.147Z,1038.6
2019-02-23T08:34:43.795Z,1038.7
2019-02-23T08:39:44.178Z,1038.6
2019-02-23T08:44:44.099Z,1038.7
2019-02-23T08:49:43.802Z,1038.6
2019-02-23T08:54:43.789Z,1038.6
2019-02-23T08:59:43.823Z,1038.6
2019-02-23T09:04:43.745Z,1038.6
2019-02-23T09:09:43.991Z,1038.6
2019-02-23T09:14:44.001Z,1038.6
2019-02-23T09:19:43.805Z,1038.6
2019-02-23T09:24:43.864Z,1038.6
2019-02-23T09:29:43.615Z,1038.7
2019-02-23T09:34:43.697Z,1038.7
2019-02-23T09:39:43.709Z,1038.7
2019-02-23T09:44:43.880Z,1038.7
2019-02-23T09:49:43.627Z,1038.6
2019-02-23T09:54:43.833Z,1038.6
2019-02-23T09:59:43.693Z,1038.5
2019-02-23T10:04:43.710Z,1038.6
2019-02-23T10:09:43.790Z,1038.5
2019-02-23T10:14:43.760Z,1038.5
2019-02-23T10:19:43.681Z,1038.6
2019-02-23T10:24:43.870Z,1038.6
2019-02-23T10:29:43.754Z,1038.6
2019-02-23T10:34:43.698Z,1038.6
2019-02-23T10:39:43.614Z,1038.6
2019-02-23T10:44:43.853Z,1038.6
2019-02-23T10:49:43.548Z,1038.6
2019-02-23T10:54:43.641Z,1038.6
2019-02-23T10:59:43.784Z,1038.5
2019-02-23T11:04:43.769Z,1038.5
2019-02-23T11:09:43.643Z,1038.5
2019-02-23T11:14:43.680Z,1038.5
2019-02-23T11:19:43.583Z,1038.5
2019-02-23T11:24:43.765Z,1038.5
2019-02-23T11:29:43.749Z,1038.4
2019-02-23T11:34:43.631Z,1038.4
2019-02-23T11:39:43.690Z,1038.3
2019-02-23T11:44:43.604Z,1038.3
2019-02-23T11:49:43.479Z,1038.2
2019-02-23T11:54:44.249Z,1038.3
2019-02-23T11:59:43.457Z,1038.2
2019-02-23T12:04:43.661Z,1038.1
2019-02-23T12:09:43.434Z,1038
2019-02-23T12:14:43.654Z,1038.1
2019-02-23T12:19:43.610Z,1038.1
2019-02-23T12:24:43.524Z,1038
2019-02-23T12:29:43.434Z,1037.9
2019-02-23T12:34:43.377Z,1037.9
2019-02-23T12:39:43.863Z,1037.8
2019-02-23T12:44:43.468Z,1037.8
2019-02-23T12:49:43.425Z,1037.7
2019-02-23T12:54:43.514Z,1037.7
2019-02-23T12:59:43.315Z,1037.7
2019-02-23T13:04:43.478Z,1037.6
2019-02-23T13:09:43.556Z,1037.5
2019-02-23T13:14:43.328Z,1037.4
2019-02-23T13:19:43.634Z,1037.3
2019-02-23T13:24:43.249Z,1037.3
2019-02-23T13:29:43.496Z,1037.4
2019-02-23T13:34:43.401Z,1037.4
2019-02-23T13:39:43.570Z,1037.4
2019-02-23T13:44:43.295Z,1037.4
2019-02-23T13:49:43.288Z,1037.4
2019-02-23T13:54:43.324Z,1037.3
2019-02-23T13:59:43.514Z,1037.3
2019-02-23T14:04:43.183Z,1037.3
2019-02-23T14:09:43.474Z,1037.2
2019-02-23T14:14:43.196Z,1037.2
2019-02-23T14:19:43.329Z,1037.2
2019-02-23T14:24:50.122Z,1037.1
2019-02-23T14:29:43.366Z,1037.2
2019-02-23T14:34:43.430Z,1037.2
2019-02-23T14:39:43.273Z,1037.2
2019-02-23T14:44:43.263Z,1037.1
2019-02-23T14:49:43.491Z,1037
2019-02-23T14:54:43.145Z,1037
2019-02-23T14:59:43.404Z,1037
2019-02-23T15:04:43.471Z,1037
2019-02-23T15:09:43.477Z,1037
2019-02-23T15:14:43.176Z,1036.9
2019-02-23T15:19:43.384Z,1037
2019-02-23T15:24:43.188Z,1036.9
2019-02-23T15:29:43.207Z,1036.9
2019-02-23T15:34:43.246Z,1036.9
2019-02-23T15:39:43.254Z,1036.9
2019-02-23T15:44:43.404Z,1036.9
2019-02-23T15:49:43.418Z,1036.9
2019-02-23T15:54:43.411Z,1036.9
2019-02-23T15:59:44.515Z,1036.8
2019-02-23T16:04:43.180Z,1036.8
2019-02-23T16:09:43.041Z,1036.8
2019-02-23T16:14:43.352Z,1036.8
2019-02-23T16:19:43.268Z,1036.8
2019-02-23T16:24:43.038Z,1036.8
2019-02-23T16:29:43.062Z,1036.8
2019-02-23T16:34:43.020Z,1036.8
2019-02-23T16:39:43.107Z,1036.7
2019-02-23T16:44:43.042Z,1036.8
2019-02-23T16:49:42.953Z,1036.8
2019-02-23T16:54:42.988Z,1036.7
2019-02-23T16:59:43.109Z,1036.7
2019-02-23T17:04:53.061Z,1036.7
2019-02-23T17:09:42.999Z,1036.6
2019-02-23T17:14:42.921Z,1036.7
2019-02-23T17:19:43.024Z,1036.8
2019-02-23T17:24:42.955Z,1036.8
2019-02-23T17:29:43.122Z,1036.8
2019-02-23T17:34:42.957Z,1036.8
2019-02-23T17:39:43.172Z,1036.8
2019-02-23T17:44:43.128Z,1036.8
2019-02-23T17:49:43.034Z,1036.8
2019-02-23T17:54:43.104Z,1036.8
2019-02-23T17:59:43.042Z,1036.7
2019-02-23T18:04:42.986Z,1036.7
2019-02-23T18:11:01.091Z,1036.6
2019-02-23T18:14:42.928Z,1036.7
2019-02-23T18:19:42.842Z,1036.7
2019-02-23T18:24:42.894Z,1036.6
2019-02-23T18:29:42.866Z,1036.7
2019-02-23T18:34:43.149Z,1036.6
2019-02-23T18:39:42.827Z,1036.7
2019-02-23T18:44:42.988Z,1036.7
2019-02-23T18:49:43.109Z,1036.7
2019-02-23T18:54:42.824Z,1036.7
2019-02-23T18:59:42.816Z,1036.8
2019-02-23T19:04:43.046Z,1036.8
2019-02-23T19:09:42.822Z,1036.8
2019-02-23T19:14:42.967Z,1036.7
2019-02-23T19:19:42.882Z,1036.7
2019-02-23T19:24:43.014Z,1036.8
2019-02-23T19:29:43.038Z,1036.8
2019-02-23T19:34:42.721Z,1036.8
2019-02-23T19:39:42.827Z,1036.9
2019-02-23T19:44:42.923Z,1036.9
2019-02-23T19:49:42.931Z,1036.9
2019-02-23T19:54:42.991Z,1036.9
2019-02-23T19:59:42.837Z,1036.9
2019-02-23T20:04:42.906Z,1036.9
2019-02-23T20:09:42.765Z,1036.9
2019-02-23T20:14:42.674Z,1036.9
2019-02-23T20:19:42.864Z,1036.9
2019-02-23T20:24:42.677Z,1037
2019-02-23T20:29:42.796Z,1036.9
2019-02-23T20:34:42.794Z,1037
2019-02-23T20:39:53.193Z,1037
2019-02-23T20:44:42.755Z,1037
2019-02-23T20:49:42.871Z,1036.9
2019-02-23T20:54:43.870Z,1036.9
2019-02-23T20:59:42.959Z,1036.9
2019-02-23T21:04:42.697Z,1036.9
2019-02-23T21:09:42.632Z,1037
2019-02-23T21:14:42.890Z,1037
2019-02-23T21:19:42.691Z,1036.9
2019-02-23T21:24:42.618Z,1036.8
2019-02-23T21:29:42.653Z,1036.7
2019-02-23T21:34:42.679Z,1036.7
2019-02-23T21:39:42.647Z,1036.8
2019-02-23T21:44:42.640Z,1036.9
2019-02-23T21:49:42.621Z,1036.9
2019-02-23T21:54:42.818Z,1036.9
2019-02-23T21:59:42.766Z,1037
2019-02-23T22:04:42.836Z,1036.9
2019-02-23T22:09:42.729Z,1036.8
2019-02-23T22:14:42.489Z,1036.8
2019-02-23T22:19:42.673Z,1036.9
2019-02-23T22:24:42.724Z,1036.8
2019-02-23T22:29:42.534Z,1036.9
2019-02-23T22:34:42.501Z,1036.9
2019-02-23T22:39:42.482Z,1037
2019-02-23T22:44:42.521Z,1037
2019-02-23T22:49:42.449Z,1037
2019-02-23T22:54:42.491Z,1037
2019-02-23T22:59:42.734Z,1037
2019-02-23T23:04:42.679Z,1037
2019-02-23T23:09:42.452Z,1037
2019-02-23T23:14:42.729Z,1037
2019-02-23T23:19:42.493Z,1037
2019-02-23T23:24:42.650Z,1037.1
2019-02-23T23:29:42.779Z,1037.1
2019-02-23T23:34:42.414Z,1037
2019-02-23T23:39:42.647Z,1037
2019-02-23T23:44:42.581Z,1037
2019-02-23T23:49:42.652Z,1037
2019-02-23T23:54:42.380Z,1037
2019-02-23T23:59:42.416Z,1036.9
